Terminal Aerodrome Forecast
Issued by NWS

Home | Current Version | Previous Version | Text Only | Print | Product List | Glossary On
Versions: 1 2 3 4 5 6 7 8 9 10 11 12 13 14 15 16 17 18
000
FTUS41 KBGM 261349 AAA
TAFITH
TAF AMD
KITH 261349Z 2614/2712 33006KT P6SM OVC060
     FM261500 33013G24KT P6SM BKN060
     FM270000 31005KT P6SM OVC050
     FM270900 32006KT P6SM -RA OVC050
      TEMPO 2709/2712 OVC010=

USA.gov is the U.S. government's official web portal to all federal, state and local government web resources and services.